New Creek, West Virginia
Current Conditions -  °F | °C
As of 2:25 AM on Wednesday 26 Nov 2014 (Local Time) from K2G4 Reporting Station
Broken Clouds Broken Clouds  
Wind Chill: 25°   Ceiling: 12000
Heat Index: 30°   Visibility: 10mi
Dew Point: 30°   Wind: 5mph
Humidity: 100%   Direction: 90°E
Pressure: 30.08"   Gusts: NA
Location:  39.37°N, 79.03°W
Report Text: K2G4 260725Z AUTO 09004KT 10SM BKN120 M01/M01 A3008 RMK AO1
Loading
Personal Weather Stations






























Interactive Weather Map New forecast layout! Learn more

10-Day Weather Forecast

Advertisements
Track Severe Weather on mobile